sensor_id;sensor_type;location;lat;lon;timestamp;temperature;humidity
20996;DHT22;10656;52.200;21.052;2023-04-05T00:08:21;-1.40;99.90
20996;DHT22;10656;52.200;21.052;2023-04-05T00:33:54;-2.10;99.90
20996;DHT22;10656;52.200;21.052;2023-04-05T01:14:27;-2.10;99.90
20996;DHT22;10656;52.200;21.052;2023-04-05T01:49:34;-2.20;99.90
20996;DHT22;10656;52.200;21.052;2023-04-05T02:14:47;-2.80;99.90
20996;DHT22;10656;52.200;21.052;2023-04-05T02:17:52;-2.50;99.90
20996;DHT22;10656;52.200;21.052;2023-04-05T02:40:01;-2.80;99.90
20996;DHT22;10656;52.200;21.052;2023-04-05T03:00:37;-3.40;99.90
20996;DHT22;10656;52.200;21.052;2023-04-05T03:25:59;-3.40;99.90
20996;DHT22;10656;52.200;21.052;2023-04-05T03:56:31;-2.70;99.90
20996;DHT22;10656;52.200;21.052;2023-04-05T05:12:11;-0.40;99.90
20996;DHT22;10656;52.200;21.052;2023-04-05T05:42:56;0.50;99.90
20996;DHT22;10656;52.200;21.052;2023-04-05T06:03:18;0.90;96.70
20996;DHT22;10656;52.200;21.052;2023-04-05T06:23:10;1.10;93.00
20996;DHT22;10656;52.200;21.052;2023-04-05T06:53:48;1.50;91.40
20996;DHT22;10656;52.200;21.052;2023-04-05T07:19:11;1.50;91.10
20996;DHT22;10656;52.200;21.052;2023-04-05T07:49:26;1.40;91.50
20996;DHT22;10656;52.200;21.052;2023-04-05T08:10:07;1.70;92.00
20996;DHT22;10656;52.200;21.052;2023-04-05T08:30:13;2.00;90.10
20996;DHT22;10656;52.200;21.052;2023-04-05T09:00:45;2.90;84.90
20996;DHT22;10656;52.200;21.052;2023-04-05T09:30:28;2.80;82.40
20996;DHT22;10656;52.200;21.052;2023-04-05T09:51:13;3.00;80.70
20996;DHT22;10656;52.200;21.052;2023-04-05T10:16:32;3.20;79.30
20996;DHT22;10656;52.200;21.052;2023-04-05T10:52:21;4.60;74.70
20996;DHT22;10656;52.200;21.052;2023-04-05T11:17:25;5.40;72.30
20996;DHT22;10656;52.200;21.052;2023-04-05T11:42:58;4.70;67.30
20996;DHT22;10656;52.200;21.052;2023-04-05T12:17:50;4.70;64.60
20996;DHT22;10656;52.200;21.052;2023-04-05T12:38:20;5.10;63.20
20996;DHT22;10656;52.200;21.052;2023-04-05T13:03:51;4.90;64.50
20996;DHT22;10656;52.200;21.052;2023-04-05T13:24:24;6.20;54.80
20996;DHT22;10656;52.200;21.052;2023-04-05T13:54:09;5.90;49.80
20996;DHT22;10656;52.200;21.052;2023-04-05T14:14:49;5.40;52.40
20996;DHT22;10656;52.200;21.052;2023-04-05T14:35:19;4.80;66.80
20996;DHT22;10656;52.200;21.052;2023-04-05T15:00:30;4.10;70.50
20996;DHT22;10656;52.200;21.052;2023-04-05T15:25:30;4.10;70.80
20996;DHT22;10656;52.200;21.052;2023-04-05T16:31:53;3.60;71.20
20996;DHT22;10656;52.200;21.052;2023-04-05T17:02:12;3.30;73.30
20996;DHT22;10656;52.200;21.052;2023-04-05T17:22:12;3.00;75.20
20996;DHT22;10656;52.200;21.052;2023-04-05T17:52:57;2.80;75.80
20996;DHT22;10656;52.200;21.052;2023-04-05T18:13:09;2.80;75.30
20996;DHT22;10656;52.200;21.052;2023-04-05T18:48:33;2.70;76.90
20996;DHT22;10656;52.200;21.052;2023-04-05T19:13:52;2.60;77.30
20996;DHT22;10656;52.200;21.052;2023-04-05T19:49:35;2.40;77.90
20996;DHT22;10656;52.200;21.052;2023-04-05T20:09:56;2.50;76.70
20996;DHT22;10656;52.200;21.052;2023-04-05T20:34:52;2.50;75.60
20996;DHT22;10656;52.200;21.052;2023-04-05T21:00:10;2.50;75.30
20996;DHT22;10656;52.200;21.052;2023-04-05T21:20:36;2.40;75.80
20996;DHT22;10656;52.200;21.052;2023-04-05T22:05:53;2.40;75.70
20996;DHT22;10656;52.200;21.052;2023-04-05T22:36:29;2.40;76.20
20996;DHT22;10656;52.200;21.052;2023-04-05T22:56:57;2.40;75.80
20996;DHT22;10656;52.200;21.052;2023-04-05T23:32:04;2.40;76.90
